createdAt,value
2017-11-08T00:00:00.331Z,8.02
2017-11-08T00:01:00.369Z,8.04
2017-11-08T00:02:00.404Z,8.07
2017-11-08T00:03:00.439Z,8.00
2017-11-08T00:04:00.474Z,8.15
2017-11-08T00:05:00.509Z,8.11
2017-11-08T00:06:00.544Z,8.10
2017-11-08T00:07:00.582Z,8.11
2017-11-08T00:08:00.636Z,8.20
2017-11-08T00:09:00.651Z,8.12
2017-11-08T00:10:00.691Z,8.18
2017-11-08T00:11:00.724Z,8.15
2017-11-08T00:12:00.760Z,8.18
2017-11-08T00:13:00.794Z,8.18
2017-11-08T00:14:00.829Z,8.18
2017-11-08T00:15:00.867Z,8.15
2017-11-08T00:16:00.902Z,8.11
2017-11-08T00:17:00.952Z,8.16
2017-11-08T00:18:00.973Z,8.18
2017-11-08T00:19:01.010Z,8.20
2017-11-08T00:20:01.044Z,8.11
2017-11-08T00:21:01.079Z,8.08
2017-11-08T00:22:01.115Z,8.19
2017-11-08T00:23:01.152Z,8.16
2017-11-08T00:24:01.189Z,8.18
2017-11-08T00:25:01.226Z,8.08
2017-11-08T00:26:01.260Z,8.04
2017-11-08T00:27:01.318Z,8.15
2017-11-08T00:28:01.330Z,8.15
2017-11-08T00:29:01.372Z,8.16
2017-11-08T00:30:01.401Z,8.11
2017-11-08T00:31:01.441Z,8.18
2017-11-08T00:32:01.475Z,8.12
2017-11-08T00:33:01.511Z,8.16
2017-11-08T00:34:01.545Z,8.19
2017-11-08T00:35:01.583Z,8.25
2017-11-08T00:36:01.615Z,8.26
2017-11-08T00:37:01.650Z,8.19
2017-11-08T00:38:01.685Z,8.10
2017-11-08T00:39:01.721Z,8.18
2017-11-08T00:40:01.761Z,8.19
2017-11-08T00:41:01.793Z,8.19
2017-11-08T00:42:01.830Z,8.10
2017-11-08T00:43:01.865Z,8.11
2017-11-08T00:44:01.901Z,8.23
2017-11-08T00:45:01.933Z,8.18
2017-11-08T00:46:01.983Z,8.15
2017-11-08T00:47:02.011Z,8.16
2017-11-08T00:48:02.040Z,8.15
2017-11-08T00:49:02.081Z,8.22
2017-11-08T00:50:02.115Z,8.16
2017-11-08T00:51:02.151Z,8.11
2017-11-08T00:52:02.183Z,8.28
2017-11-08T00:53:02.279Z,8.20
2017-11-08T00:54:02.256Z,8.18
2017-11-08T00:55:02.301Z,8.12
2017-11-08T00:56:02.332Z,8.16
2017-11-08T00:57:02.361Z,8.18
2017-11-08T00:58:02.396Z,8.25
2017-11-08T00:59:02.435Z,8.18
2017-11-08T01:00:02.470Z,8.18
2017-11-08T01:01:02.505Z,8.16
2017-11-08T01:02:02.640Z,8.10
2017-11-08T01:03:02.602Z,8.18
2017-11-08T01:04:02.614Z,8.11
2017-11-08T01:05:02.647Z,8.15
2017-11-08T01:06:02.691Z,8.19
2017-11-08T01:07:02.717Z,8.20
2017-11-08T01:08:02.755Z,8.16
2017-11-08T01:09:02.788Z,8.11
2017-11-08T01:10:02.833Z,8.16
2017-11-08T01:11:02.871Z,8.23
2017-11-08T01:12:02.897Z,8.16
2017-11-08T01:13:02.941Z,8.16
2017-11-08T01:14:02.967Z,8.20
2017-11-08T01:15:03.005Z,8.29
2017-11-08T01:16:03.036Z,8.11
2017-11-08T01:17:03.073Z,8.23
2017-11-08T01:18:03.107Z,8.25
2017-11-08T01:19:03.142Z,8.23
2017-11-08T01:20:03.184Z,8.26
2017-11-08T01:21:03.216Z,8.15
2017-11-08T01:22:03.253Z,8.18
2017-11-08T01:23:03.284Z,8.20
2017-11-08T01:24:03.324Z,8.22
2017-11-08T01:25:03.356Z,8.25
2017-11-08T01:26:03.392Z,8.22
2017-11-08T01:27:03.433Z,8.28
2017-11-08T01:28:03.466Z,8.28
2017-11-08T01:29:03.519Z,8.19
2017-11-08T01:30:03.536Z,8.26
2017-11-08T01:31:03.574Z,8.29
2017-11-08T01:32:03.606Z,8.25
2017-11-08T01:33:03.644Z,8.20
2017-11-08T01:34:03.680Z,8.37
2017-11-08T01:35:03.715Z,8.22
2017-11-08T01:36:03.750Z,8.25
2017-11-08T01:37:03.784Z,8.33
2017-11-08T01:38:03.825Z,8.20
2017-11-08T01:39:03.858Z,8.25
2017-11-08T01:40:03.894Z,8.26
2017-11-08T01:41:03.929Z,8.26
2017-11-08T01:42:03.964Z,8.26
2017-11-08T01:43:04.007Z,8.25
2017-11-08T01:44:04.038Z,8.25
2017-11-08T01:45:04.068Z,8.23
2017-11-08T01:46:04.107Z,8.18
2017-11-08T01:47:04.234Z,8.20
2017-11-08T01:48:04.177Z,8.30
2017-11-08T01:49:04.215Z,8.26
2017-11-08T01:50:04.261Z,8.34
2017-11-08T01:51:04.286Z,8.36
2017-11-08T01:52:04.325Z,8.23
2017-11-08T01:53:04.356Z,8.36
2017-11-08T01:54:04.395Z,8.36
2017-11-08T01:55:04.427Z,8.25
2017-11-08T01:56:04.499Z,8.26
2017-11-08T01:57:04.500Z,8.34
2017-11-08T01:58:04.537Z,8.34
2017-11-08T01:59:04.570Z,8.30
2017-11-08T02:00:04.608Z,8.26
2017-11-08T02:01:04.646Z,8.29
2017-11-08T02:02:04.678Z,8.36
2017-11-08T02:03:04.715Z,8.26
2017-11-08T02:04:04.750Z,8.29
2017-11-08T02:05:04.874Z,8.23
2017-11-08T02:06:04.844Z,8.20
2017-11-08T02:07:04.916Z,8.25
2017-11-08T02:08:04.896Z,8.28
2017-11-08T02:09:04.928Z,8.19
2017-11-08T02:10:04.963Z,8.23
2017-11-08T02:11:05.002Z,8.28
2017-11-08T02:12:05.036Z,8.25
2017-11-08T02:13:05.072Z,8.28
2017-11-08T02:14:05.108Z,8.28
2017-11-08T02:15:05.146Z,8.22
2017-11-08T02:16:05.179Z,8.23
2017-11-08T02:17:05.217Z,8.28
2017-11-08T02:18:05.252Z,8.33
2017-11-08T02:19:05.288Z,8.25
2017-11-08T02:20:05.322Z,8.22
2017-11-08T02:21:05.360Z,8.36
2017-11-08T02:22:05.395Z,8.30
2017-11-08T02:23:05.428Z,8.23
2017-11-08T02:24:05.466Z,8.26
2017-11-08T02:25:05.500Z,8.25
2017-11-08T02:26:05.538Z,8.28
2017-11-08T02:27:05.572Z,8.25
2017-11-08T02:28:05.610Z,8.22
2017-11-08T02:29:05.642Z,8.23
2017-11-08T02:30:05.689Z,8.26
2017-11-08T02:31:05.717Z,8.22
2017-11-08T02:32:05.750Z,8.28
2017-11-08T02:33:05.787Z,8.23
2017-11-08T02:34:05.821Z,8.26
2017-11-08T02:35:05.857Z,8.20
2017-11-08T02:36:05.893Z,8.23
2017-11-08T02:37:05.936Z,8.26
2017-11-08T02:38:05.963Z,8.30
2017-11-08T02:39:05.998Z,8.29
2017-11-08T02:40:06.038Z,8.37
2017-11-08T02:41:06.079Z,8.30
2017-11-08T02:42:06.113Z,8.36
2017-11-08T02:43:06.144Z,8.38
2017-11-08T02:44:06.179Z,8.45
2017-11-08T02:45:06.218Z,8.41
2017-11-08T02:46:06.250Z,8.48
2017-11-08T02:47:06.285Z,8.40
2017-11-08T02:48:06.321Z,8.37
2017-11-08T02:49:06.360Z,8.43
2017-11-08T02:50:06.481Z,8.41
2017-11-08T02:51:06.430Z,8.38
2017-11-08T02:52:06.463Z,8.45
2017-11-08T02:53:06.499Z,8.40
2017-11-08T02:54:06.532Z,8.48
2017-11-08T02:55:06.570Z,8.40
2017-11-08T02:56:06.608Z,8.38
2017-11-08T02:57:06.641Z,8.47
2017-11-08T02:58:06.679Z,8.52
2017-11-08T02:59:06.722Z,8.48
2017-11-08T03:00:06.748Z,8.43
2017-11-08T03:01:06.787Z,8.47
2017-11-08T03:02:06.819Z,8.43
2017-11-08T03:03:06.859Z,8.52
2017-11-08T03:04:06.890Z,8.55
2017-11-08T03:05:06.929Z,8.47
2017-11-08T03:06:06.965Z,8.43
2017-11-08T03:07:06.999Z,8.44
2017-11-08T03:08:07.043Z,8.43
2017-11-08T03:09:07.071Z,8.40
2017-11-08T03:10:07.112Z,8.45
2017-11-08T03:11:07.142Z,8.44
2017-11-08T03:12:07.179Z,8.40
2017-11-08T03:13:07.215Z,8.47
2017-11-08T03:14:07.252Z,8.40
2017-11-08T03:15:07.289Z,8.43
2017-11-08T03:16:07.322Z,8.43
2017-11-08T03:17:07.361Z,8.45
2017-11-08T03:18:07.395Z,8.43
2017-11-08T03:19:07.434Z,8.45
2017-11-08T03:20:07.470Z,8.48
2017-11-08T03:21:07.510Z,8.45
2017-11-08T03:22:07.540Z,8.47
2017-11-08T03:23:07.575Z,8.43
2017-11-08T03:24:07.611Z,8.47
2017-11-08T03:25:07.648Z,8.45
2017-11-08T03:26:07.684Z,8.52
2017-11-08T03:27:07.739Z,8.50
2017-11-08T03:28:07.756Z,8.47
2017-11-08T03:29:07.791Z,8.48
2017-11-08T03:30:07.835Z,8.47
2017-11-08T03:31:07.864Z,8.44
2017-11-08T03:32:07.901Z,8.43
2017-11-08T03:33:07.934Z,8.47
2017-11-08T03:34:07.970Z,8.45
2017-11-08T03:35:08.011Z,8.47
2017-11-08T03:36:08.047Z,8.47
2017-11-08T03:37:08.081Z,8.50
2017-11-08T03:38:08.114Z,8.52
2017-11-08T03:39:08.151Z,8.43
2017-11-08T03:40:08.190Z,8.48
2017-11-08T03:41:08.222Z,8.38
2017-11-08T03:42:08.262Z,8.34
2017-11-08T03:43:08.294Z,8.30
2017-11-08T03:44:08.407Z,8.30
2017-11-08T03:45:08.367Z,8.36
2017-11-08T03:46:08.405Z,8.33
2017-11-08T03:47:08.443Z,8.36
2017-11-08T03:48:08.475Z,8.36
2017-11-08T03:49:08.508Z,8.38
2017-11-08T03:50:08.544Z,8.29
2017-11-08T03:51:08.582Z,8.36
2017-11-08T03:52:08.618Z,8.37
2017-11-08T03:53:08.665Z,8.34
2017-11-08T03:54:08.690Z,8.36
2017-11-08T03:55:08.779Z,8.30
2017-11-08T03:56:08.762Z,8.30
2017-11-08T03:57:08.800Z,8.38
2017-11-08T03:58:08.832Z,8.34
2017-11-08T03:59:08.866Z,8.38
2017-11-08T04:00:08.906Z,8.36
2017-11-08T04:01:08.937Z,8.38
2017-11-08T04:02:09.000Z,8.40
2017-11-08T04:03:09.012Z,8.36
2017-11-08T04:04:09.048Z,8.40
2017-11-08T04:05:09.084Z,8.38
2017-11-08T04:06:09.118Z,8.34
2017-11-08T04:07:09.152Z,8.34
2017-11-08T04:08:09.192Z,8.36
2017-11-08T04:09:09.225Z,8.36
2017-11-08T04:10:09.266Z,8.36
2017-11-08T04:11:09.297Z,8.33
2017-11-08T04:12:09.333Z,8.36
2017-11-08T04:13:09.367Z,8.36
2017-11-08T04:14:09.403Z,8.29
2017-11-08T04:15:09.442Z,8.22
2017-11-08T04:16:09.475Z,8.36
2017-11-08T04:17:09.514Z,8.36
2017-11-08T04:18:09.548Z,8.33
2017-11-08T04:19:09.595Z,8.36
2017-11-08T04:20:09.617Z,8.25
2017-11-08T04:21:09.663Z,8.23
2017-11-08T04:22:09.694Z,8.28
2017-11-08T04:23:09.726Z,8.23
2017-11-08T04:24:09.765Z,8.26
2017-11-08T04:25:09.795Z,8.18
2017-11-08T04:26:09.832Z,8.26
2017-11-08T04:27:09.876Z,8.28
2017-11-08T04:28:09.903Z,8.28
2017-11-08T04:29:09.939Z,8.22
2017-11-08T04:30:09.975Z,8.29
2017-11-08T04:31:10.015Z,8.26
2017-11-08T04:32:10.065Z,8.25
2017-11-08T04:33:10.085Z,8.22
2017-11-08T04:34:10.119Z,8.26
2017-11-08T04:35:10.154Z,8.22
2017-11-08T04:36:10.189Z,8.19
2017-11-08T04:37:10.225Z,8.26
2017-11-08T04:38:10.376Z,8.26
2017-11-08T04:39:10.298Z,8.22
2017-11-08T04:40:10.340Z,8.23
2017-11-08T04:41:10.363Z,8.19
2017-11-08T04:42:10.403Z,8.22
2017-11-08T04:43:10.439Z,8.23
2017-11-08T04:44:10.475Z,8.20
2017-11-08T04:45:10.510Z,8.15
2017-11-08T04:46:10.558Z,8.15
2017-11-08T04:47:10.670Z,8.16
2017-11-08T04:48:10.619Z,8.10
2017-11-08T04:49:10.654Z,8.12
2017-11-08T04:50:10.685Z,8.23
2017-11-08T04:51:10.720Z,8.26
2017-11-08T04:52:10.756Z,8.22
2017-11-08T04:53:10.791Z,8.25
2017-11-08T04:54:10.830Z,8.19
2017-11-08T04:55:10.867Z,8.23
2017-11-08T04:56:11.031Z,8.28
2017-11-08T04:57:10.931Z,8.20
2017-11-08T04:58:10.978Z,8.22
2017-11-08T04:59:11.010Z,8.20
2017-11-08T05:00:11.042Z,8.25
2017-11-08T05:01:11.075Z,8.18
2017-11-08T05:02:11.110Z,8.22
2017-11-08T05:03:11.149Z,8.26
2017-11-08T05:04:11.184Z,8.22
2017-11-08T05:05:11.218Z,8.20
2017-11-08T05:06:11.250Z,8.20
2017-11-08T05:07:11.289Z,8.22
2017-11-08T05:08:11.320Z,8.23
2017-11-08T05:09:11.354Z,8.23
2017-11-08T05:10:11.392Z,8.22
2017-11-08T05:11:11.429Z,8.23
2017-11-08T05:12:11.470Z,8.18
2017-11-08T05:13:11.500Z,8.25
2017-11-08T05:14:11.539Z,8.18
2017-11-08T05:15:11.571Z,8.29
2017-11-08T05:16:11.607Z,8.10
2017-11-08T05:17:11.639Z,8.15
2017-11-08T05:18:11.677Z,8.16
2017-11-08T05:19:11.715Z,8.29
2017-11-08T05:20:11.747Z,8.10
2017-11-08T05:21:11.779Z,8.20
2017-11-08T05:22:11.814Z,8.20
2017-11-08T05:23:11.860Z,8.22
2017-11-08T05:24:11.887Z,8.18
2017-11-08T05:25:11.919Z,8.26
2017-11-08T05:26:11.957Z,8.22
2017-11-08T05:27:11.993Z,8.20
2017-11-08T05:28:12.027Z,8.26
2017-11-08T05:29:12.063Z,8.28
2017-11-08T05:30:12.098Z,8.20
2017-11-08T05:31:12.132Z,8.25
2017-11-08T05:32:12.180Z,8.16
2017-11-08T05:33:12.203Z,8.12
2017-11-08T05:34:12.270Z,8.16
2017-11-08T05:35:12.279Z,8.20
2017-11-08T05:36:12.311Z,8.23
2017-11-08T05:37:12.348Z,8.20
2017-11-08T05:38:12.379Z,8.19
2017-11-08T05:39:12.439Z,8.19
2017-11-08T05:40:12.452Z,8.16
2017-11-08T05:41:12.512Z,8.23
2017-11-08T05:42:12.523Z,8.28
2017-11-08T05:43:12.574Z,8.19
2017-11-08T05:44:12.593Z,8.23
2017-11-08T05:45:12.628Z,8.23
2017-11-08T05:46:12.665Z,8.25
2017-11-08T05:47:12.701Z,8.26
2017-11-08T05:48:12.733Z,8.26
2017-11-08T05:49:12.769Z,8.23
2017-11-08T05:50:12.832Z,8.19
2017-11-08T05:51:12.844Z,8.25
2017-11-08T05:52:12.884Z,8.26
2017-11-08T05:53:12.911Z,8.20
2017-11-08T05:54:12.950Z,8.29
2017-11-08T05:55:12.983Z,8.19
2017-11-08T05:56:13.020Z,8.11
2017-11-08T05:57:13.052Z,8.16
2017-11-08T05:58:13.091Z,8.20
2017-11-08T05:59:13.124Z,8.19
2017-11-08T06:00:13.159Z,8.23
2017-11-08T06:01:13.195Z,8.16
2017-11-08T06:02:13.230Z,8.19
2017-11-08T06:03:13.266Z,8.28
2017-11-08T06:04:13.303Z,8.15
2017-11-08T06:05:13.335Z,8.26
2017-11-08T06:06:13.426Z,8.20
2017-11-08T06:07:13.411Z,8.22
2017-11-08T06:08:13.443Z,8.23
2017-11-08T06:09:13.481Z,8.19
2017-11-08T06:10:13.514Z,8.20
2017-11-08T06:11:13.549Z,8.15
2017-11-08T06:12:13.588Z,8.19
2017-11-08T06:13:13.619Z,8.16
2017-11-08T06:14:13.653Z,8.22
2017-11-08T06:15:13.690Z,8.23
2017-11-08T06:16:13.726Z,8.28
2017-11-08T06:17:13.777Z,8.23
2017-11-08T06:18:13.802Z,8.26
2017-11-08T06:19:13.832Z,8.25
2017-11-08T06:20:13.869Z,8.25
2017-11-08T06:21:13.903Z,8.26
2017-11-08T06:22:13.940Z,8.29
2017-11-08T06:23:13.972Z,8.26
2017-11-08T06:24:14.010Z,8.29
2017-11-08T06:25:14.043Z,8.23
2017-11-08T06:26:14.080Z,8.23
2017-11-08T06:27:14.131Z,8.26
2017-11-08T06:28:14.151Z,8.25
2017-11-08T06:29:14.183Z,8.26
2017-11-08T06:30:14.222Z,8.25
2017-11-08T06:31:14.258Z,8.28
2017-11-08T06:32:14.305Z,8.26
2017-11-08T06:33:14.326Z,8.20
2017-11-08T06:34:14.361Z,8.20
2017-11-08T06:35:14.401Z,8.22
2017-11-08T06:36:14.434Z,8.15
2017-11-08T06:37:14.576Z,8.19
2017-11-08T06:38:14.505Z,8.20
2017-11-08T06:39:14.546Z,8.19
2017-11-08T06:40:14.580Z,8.20
2017-11-08T06:41:14.612Z,8.18
2017-11-08T06:42:14.648Z,8.18
2017-11-08T06:43:14.684Z,8.11
2017-11-08T06:44:14.718Z,8.18
2017-11-08T06:45:14.753Z,8.22
2017-11-08T06:46:14.845Z,8.16
2017-11-08T06:47:14.828Z,8.18
2017-11-08T06:48:14.862Z,8.12
2017-11-08T06:49:14.898Z,8.19
2017-11-08T06:50:14.932Z,8.22
2017-11-08T06:51:14.973Z,8.19
2017-11-08T06:52:15.004Z,8.22
2017-11-08T06:53:15.034Z,8.20
2017-11-08T06:54:15.071Z,8.22
2017-11-08T06:55:15.122Z,8.19
2017-11-08T06:56:15.142Z,8.16
2017-11-08T06:57:15.175Z,8.25
2017-11-08T06:58:15.210Z,8.16
2017-11-08T06:59:15.257Z,8.16
2017-11-08T07:00:15.287Z,8.12
2017-11-08T07:01:15.318Z,8.16
2017-11-08T07:02:15.352Z,8.18
2017-11-08T07:03:15.388Z,8.12
2017-11-08T07:04:15.426Z,8.12
2017-11-08T07:05:15.463Z,8.10
2017-11-08T07:06:15.495Z,8.07
2017-11-08T07:07:15.535Z,8.12
2017-11-08T07:08:15.566Z,8.11
2017-11-08T07:09:15.602Z,8.10
2017-11-08T07:10:15.636Z,8.12
2017-11-08T07:11:15.674Z,8.16
2017-11-08T07:12:15.714Z,8.20
2017-11-08T07:13:15.744Z,8.28
2017-11-08T07:14:15.776Z,8.10
2017-11-08T07:15:15.815Z,8.12
2017-11-08T07:16:15.866Z,8.11
2017-11-08T07:17:15.889Z,8.26
2017-11-08T07:18:15.919Z,8.18
2017-11-08T07:19:15.955Z,8.25
2017-11-08T07:20:15.990Z,8.16
2017-11-08T07:21:16.029Z,8.20
2017-11-08T07:22:16.059Z,8.11
2017-11-08T07:23:16.094Z,8.18
2017-11-08T07:24:16.134Z,8.18
2017-11-08T07:25:16.166Z,8.15
2017-11-08T07:26:16.205Z,8.11
2017-11-08T07:27:16.242Z,8.19
2017-11-08T07:28:16.280Z,8.18
2017-11-08T07:29:16.307Z,8.11
2017-11-08T07:30:16.343Z,8.19
2017-11-08T07:31:16.402Z,8.16
2017-11-08T07:32:16.414Z,8.20
2017-11-08T07:33:16.454Z,8.12
2017-11-08T07:34:16.485Z,8.23
2017-11-08T07:35:16.521Z,8.16
2017-11-08T07:36:16.558Z,8.18
2017-11-08T07:37:16.589Z,8.19
2017-11-08T07:38:16.624Z,8.15
2017-11-08T07:39:16.665Z,8.18
2017-11-08T07:40:16.713Z,8.22
2017-11-08T07:41:16.735Z,8.22
2017-11-08T07:42:16.775Z,8.19
2017-11-08T07:43:16.805Z,8.36
2017-11-08T07:44:16.840Z,8.22
2017-11-08T07:45:16.875Z,8.26
2017-11-08T07:46:16.910Z,8.23
2017-11-08T07:47:16.945Z,8.25
2017-11-08T07:48:16.981Z,8.25
2017-11-08T07:49:17.093Z,8.26
2017-11-08T07:50:17.052Z,8.36
2017-11-08T07:51:17.091Z,8.34
2017-11-08T07:52:17.125Z,8.37
2017-11-08T07:53:17.160Z,8.36
2017-11-08T07:54:17.199Z,8.38
2017-11-08T07:55:17.230Z,8.48
2017-11-08T07:56:17.267Z,8.37
2017-11-08T07:57:17.310Z,8.48
2017-11-08T07:58:17.337Z,8.47
2017-11-08T07:59:17.372Z,8.44
2017-11-08T08:00:17.410Z,8.44
2017-11-08T08:01:17.441Z,8.48
2017-11-08T08:02:17.480Z,8.48
2017-11-08T08:03:17.531Z,8.45
2017-11-08T08:04:17.551Z,8.55
2017-11-08T08:05:17.586Z,8.50
2017-11-08T08:06:17.622Z,8.63
2017-11-08T08:07:17.657Z,8.61
2017-11-08T08:08:17.697Z,8.52
2017-11-08T08:09:17.729Z,8.61
2017-11-08T08:10:17.765Z,8.62
2017-11-08T08:11:17.801Z,8.47
2017-11-08T08:12:17.837Z,8.50
2017-11-08T08:13:17.871Z,8.50
2017-11-08T08:14:17.906Z,8.56
2017-11-08T08:15:17.942Z,8.59
2017-11-08T08:16:17.980Z,8.63
2017-11-08T08:17:18.022Z,8.62
2017-11-08T08:18:18.057Z,8.59
2017-11-08T08:19:18.090Z,8.61
2017-11-08T08:20:18.123Z,8.63
2017-11-08T08:21:18.177Z,8.58
2017-11-08T08:22:18.195Z,8.63
2017-11-08T08:23:18.231Z,8.59
2017-11-08T08:24:18.271Z,8.53
2017-11-08T08:25:18.310Z,8.55
2017-11-08T08:26:18.340Z,8.55
2017-11-08T08:27:18.394Z,8.53
2017-11-08T08:28:18.410Z,8.58
2017-11-08T08:29:18.444Z,8.58
2017-11-08T08:30:18.481Z,8.56
2017-11-08T08:31:18.519Z,8.63
2017-11-08T08:32:18.553Z,8.58
2017-11-08T08:33:18.596Z,8.63
2017-11-08T08:34:18.665Z,8.68
2017-11-08T08:35:18.664Z,8.66
2017-11-08T08:36:18.702Z,8.70
2017-11-08T08:37:18.731Z,8.70
2017-11-08T08:38:18.770Z,8.80
2017-11-08T08:39:18.803Z,8.77
2017-11-08T08:40:18.840Z,8.71
2017-11-08T08:41:18.878Z,8.71
2017-11-08T08:42:18.911Z,8.76
2017-11-08T08:43:18.961Z,8.80
2017-11-08T08:44:18.983Z,8.77
2017-11-08T08:45:19.023Z,8.86
2017-11-08T08:46:19.059Z,8.84
2017-11-08T08:47:19.091Z,8.94
2017-11-08T08:48:19.135Z,8.95
2017-11-08T08:49:19.162Z,8.92
2017-11-08T08:50:19.205Z,8.89
2017-11-08T08:51:19.234Z,8.95
2017-11-08T08:52:19.274Z,8.94
2017-11-08T08:53:19.307Z,8.94
2017-11-08T08:54:19.343Z,8.91
2017-11-08T08:55:19.384Z,8.95
2017-11-08T08:56:19.420Z,8.95
2017-11-08T08:57:19.453Z,8.96
2017-11-08T08:58:19.490Z,8.96
2017-11-08T08:59:19.525Z,8.84
2017-11-08T09:00:19.559Z,8.81
2017-11-08T09:01:19.601Z,8.80
2017-11-08T09:02:19.645Z,8.84
2017-11-08T09:03:19.672Z,8.86
2017-11-08T09:04:19.706Z,8.92
2017-11-08T09:05:19.742Z,8.98
2017-11-08T09:06:19.777Z,8.98
2017-11-08T09:07:19.814Z,8.94
2017-11-08T09:08:19.851Z,8.89
2017-11-08T09:09:19.886Z,8.94
2017-11-08T09:10:19.928Z,8.94
2017-11-08T09:11:19.959Z,9.04
2017-11-08T09:12:19.996Z,9.08
2017-11-08T09:13:20.030Z,9.17
2017-11-08T09:14:20.065Z,9.10
2017-11-08T09:15:20.102Z,9.14
2017-11-08T09:16:20.137Z,9.18
2017-11-08T09:17:20.175Z,9.14
2017-11-08T09:18:20.211Z,9.23
2017-11-08T09:19:20.303Z,9.17
2017-11-08T09:20:20.284Z,9.15
2017-11-08T09:21:20.321Z,9.15
2017-11-08T09:22:20.359Z,9.14
2017-11-08T09:23:20.394Z,9.04
2017-11-08T09:24:20.432Z,8.92
2017-11-08T09:25:20.465Z,8.89
2017-11-08T09:26:20.503Z,8.96
2017-11-08T09:27:20.555Z,8.96
2017-11-08T09:28:20.692Z,8.98
2017-11-08T09:29:20.613Z,8.94
2017-11-08T09:30:20.647Z,8.91
2017-11-08T09:31:20.685Z,8.92
2017-11-08T09:32:20.717Z,8.94
2017-11-08T09:33:20.756Z,8.94
2017-11-08T09:34:20.791Z,8.96
2017-11-08T09:35:20.828Z,9.02
2017-11-08T09:36:20.862Z,9.11
2017-11-08T09:37:20.972Z,9.17
2017-11-08T09:38:20.935Z,9.18
2017-11-08T09:39:20.987Z,9.20
2017-11-08T09:40:21.012Z,9.14
2017-11-08T09:41:21.043Z,9.10
2017-11-08T09:42:21.082Z,9.08
2017-11-08T09:43:21.117Z,9.10
2017-11-08T09:44:21.154Z,9.14
2017-11-08T09:45:21.194Z,9.14
2017-11-08T09:46:21.235Z,9.23
2017-11-08T09:47:21.262Z,9.26
2017-11-08T09:48:21.298Z,9.23
2017-11-08T09:49:21.337Z,9.29
2017-11-08T09:50:21.377Z,9.35
2017-11-08T09:51:21.407Z,9.36
2017-11-08T09:52:21.443Z,9.38
2017-11-08T09:53:21.479Z,9.39
2017-11-08T09:54:21.521Z,9.32
2017-11-08T09:55:21.561Z,9.29
2017-11-08T09:56:21.589Z,9.20
2017-11-08T09:57:21.624Z,9.28
2017-11-08T09:58:21.659Z,9.21
2017-11-08T09:59:21.720Z,9.18
2017-11-08T10:00:21.734Z,9.31
2017-11-08T10:01:21.772Z,9.29
2017-11-08T10:02:21.804Z,9.21
2017-11-08T10:03:21.844Z,9.26
2017-11-08T10:04:21.880Z,9.31
2017-11-08T10:05:21.914Z,9.29
2017-11-08T10:06:21.954Z,9.26
2017-11-08T10:07:22.039Z,9.24
2017-11-08T10:08:22.049Z,9.20
2017-11-08T10:09:22.060Z,9.31
2017-11-08T10:10:22.097Z,9.24
2017-11-08T10:11:22.134Z,9.23
2017-11-08T10:12:22.173Z,9.23
2017-11-08T10:13:22.228Z,9.35
2017-11-08T10:14:22.245Z,9.33
2017-11-08T10:15:22.284Z,9.35
2017-11-08T10:16:22.315Z,9.21
2017-11-08T10:17:22.351Z,9.29
2017-11-08T10:18:22.448Z,9.24
2017-11-08T10:19:22.425Z,9.39
2017-11-08T10:20:22.464Z,9.35
2017-11-08T10:21:22.497Z,9.33
2017-11-08T10:22:22.635Z,9.26
2017-11-08T10:23:22.569Z,9.32
2017-11-08T10:24:22.607Z,9.26
2017-11-08T10:25:22.647Z,9.24
2017-11-08T10:26:22.685Z,9.26
2017-11-08T10:27:22.719Z,9.32
2017-11-08T10:28:22.755Z,9.20
2017-11-08T10:29:22.793Z,9.23
2017-11-08T10:30:22.825Z,9.28
2017-11-08T10:31:22.968Z,9.26
2017-11-08T10:32:22.897Z,9.23
2017-11-08T10:33:22.940Z,9.31
2017-11-08T10:34:22.971Z,9.24
2017-11-08T10:35:23.012Z,9.23
2017-11-08T10:36:23.047Z,9.31
2017-11-08T10:37:23.082Z,9.23
2017-11-08T10:38:23.117Z,9.28
2017-11-08T10:39:23.158Z,9.29
2017-11-08T10:40:23.190Z,9.24
2017-11-08T10:41:23.225Z,9.17
2017-11-08T10:42:23.233Z,9.14
2017-11-08T10:43:23.271Z,9.31
2017-11-08T10:44:23.300Z,9.24
2017-11-08T10:45:23.340Z,9.35
2017-11-08T10:46:23.374Z,9.35
2017-11-08T10:47:23.419Z,9.39
2017-11-08T10:48:23.445Z,9.39
2017-11-08T10:49:23.479Z,9.36
2017-11-08T10:50:23.521Z,9.35
2017-11-08T10:51:23.556Z,9.53
2017-11-08T10:52:23.593Z,9.53
2017-11-08T10:53:23.626Z,9.57
2017-11-08T10:54:23.662Z,9.57
2017-11-08T10:55:23.699Z,9.57
2017-11-08T10:56:23.740Z,9.58
2017-11-08T10:57:23.772Z,9.68
2017-11-08T10:58:23.813Z,9.61
2017-11-08T10:59:23.846Z,9.60
2017-11-08T11:00:23.887Z,9.68
2017-11-08T11:01:23.921Z,9.72
2017-11-08T11:02:23.956Z,9.68
2017-11-08T11:03:23.993Z,9.75
2017-11-08T11:04:24.030Z,9.61
2017-11-08T11:05:24.066Z,9.66
2017-11-08T11:06:24.104Z,9.65
2017-11-08T11:07:24.147Z,9.68
2017-11-08T11:08:24.179Z,9.57
2017-11-08T11:09:24.217Z,9.48
2017-11-08T11:10:24.260Z,9.47
2017-11-08T11:11:24.294Z,9.33
2017-11-08T11:12:24.325Z,9.28
2017-11-08T11:13:24.368Z,9.23
2017-11-08T11:14:24.406Z,9.21
2017-11-08T11:15:24.436Z,9.31
2017-11-08T11:16:24.500Z,9.33
2017-11-08T11:17:24.512Z,9.31
2017-11-08T11:18:24.548Z,9.31
2017-11-08T11:19:24.587Z,9.33
2017-11-08T11:20:24.622Z,9.43
2017-11-08T11:21:24.660Z,9.58
2017-11-08T11:22:24.704Z,9.50
2017-11-08T11:23:24.808Z,9.64
2017-11-08T11:24:24.770Z,9.72
2017-11-08T11:25:24.920Z,9.78
2017-11-08T11:26:24.843Z,9.84
2017-11-08T11:27:24.881Z,9.89
2017-11-08T11:28:24.920Z,9.99
2017-11-08T11:29:24.955Z,10.05
2017-11-08T11:30:24.991Z,10.09
2017-11-08T11:31:25.030Z,10.11
2017-11-08T11:32:25.164Z,10.18
2017-11-08T11:33:25.104Z,10.12
2017-11-08T11:34:25.183Z,10.17
2017-11-08T11:35:25.178Z,10.32
2017-11-08T11:36:25.215Z,10.15
2017-11-08T11:37:25.253Z,10.12
2017-11-08T11:38:25.291Z,9.99
2017-11-08T11:40:25.386Z,9.97
2017-11-08T11:41:25.403Z,9.90
2017-11-08T11:42:25.441Z,9.78
2017-11-08T11:43:25.477Z,9.81
2017-11-08T11:44:25.516Z,9.69
2017-11-08T11:45:25.562Z,9.76
2017-11-08T11:46:25.596Z,9.74
2017-11-08T11:47:25.634Z,9.79
2017-11-08T11:48:25.667Z,9.75
2017-11-08T11:49:25.699Z,9.71
2017-11-08T11:50:25.740Z,9.61
2017-11-08T11:51:25.780Z,9.58
2017-11-08T11:52:25.811Z,9.57
2017-11-08T11:53:25.848Z,9.54
2017-11-08T11:54:25.887Z,9.66
2017-11-08T11:55:25.931Z,9.64
2017-11-08T11:56:25.962Z,9.79
2017-11-08T11:57:26.021Z,9.72
2017-11-08T11:58:26.033Z,9.69
2017-11-08T11:59:26.071Z,9.75
2017-11-08T12:00:26.109Z,9.75
2017-11-08T12:01:26.146Z,9.83
2017-11-08T12:02:26.185Z,9.79
2017-11-08T12:03:26.225Z,9.79
2017-11-08T12:04:26.256Z,9.93
2017-11-08T12:05:26.293Z,9.93
2017-11-08T12:06:26.341Z,9.86
2017-11-08T12:07:26.366Z,9.91
2017-11-08T12:08:26.435Z,9.90
2017-11-08T12:09:26.441Z,9.93
2017-11-08T12:10:26.482Z,10.07
2017-11-08T12:11:26.523Z,10.07
2017-11-08T12:12:26.554Z,10.14
2017-11-08T12:13:26.593Z,10.17
2017-11-08T12:14:26.632Z,10.23
2017-11-08T12:15:26.671Z,10.09
2017-11-08T12:16:26.709Z,10.09
2017-11-08T12:17:26.779Z,10.07
2017-11-08T12:18:26.778Z,10.01
2017-11-08T12:19:26.817Z,9.99
2017-11-08T12:20:26.850Z,9.97
2017-11-08T12:21:26.894Z,9.90
2017-11-08T12:22:26.928Z,9.90
2017-11-08T12:23:26.965Z,9.87
2017-11-08T12:24:27.005Z,9.91
2017-11-08T12:25:27.044Z,9.84
2017-11-08T12:26:27.120Z,9.89
2017-11-08T12:27:27.111Z,9.87
2017-11-08T12:28:27.151Z,9.97
2017-11-08T12:29:27.186Z,9.93
2017-11-08T12:30:27.222Z,10.07
2017-11-08T12:31:27.264Z,10.04
2017-11-08T12:32:27.301Z,10.17
2017-11-08T12:33:27.351Z,10.22
2017-11-08T12:34:27.375Z,10.27
2017-11-08T12:35:27.411Z,10.27
2017-11-08T12:36:27.449Z,10.36
2017-11-08T12:37:27.486Z,10.36
2017-11-08T12:38:27.522Z,10.34
2017-11-08T12:39:27.561Z,10.32
2017-11-08T12:40:27.601Z,10.30
2017-11-08T12:41:27.631Z,10.34
2017-11-08T12:42:27.673Z,10.30
2017-11-08T12:43:27.712Z,10.26
2017-11-08T12:44:27.749Z,10.25
2017-11-08T12:45:27.782Z,10.17
2017-11-08T12:46:27.821Z,10.14
2017-11-08T12:47:27.860Z,10.14
2017-11-08T12:48:27.897Z,10.09
2017-11-08T12:49:27.935Z,10.05
2017-11-08T12:50:27.972Z,10.01
2017-11-08T12:51:28.014Z,10.08
2017-11-08T12:52:28.047Z,10.01
2017-11-08T12:53:28.081Z,9.99
2017-11-08T12:54:28.121Z,9.94
2017-11-08T12:55:28.169Z,9.90
2017-11-08T12:56:28.193Z,9.81
2017-11-08T12:57:28.231Z,9.84
2017-11-08T12:58:28.271Z,9.74
2017-11-08T12:59:28.307Z,9.81
2017-11-08T13:00:28.451Z,9.83
2017-11-08T13:01:28.382Z,9.75
2017-11-08T13:02:28.471Z,9.71
2017-11-08T13:03:28.459Z,9.71
2017-11-08T13:04:28.493Z,9.87
2017-11-08T13:05:28.528Z,9.81
2017-11-08T13:06:28.569Z,9.87
2017-11-08T13:07:28.607Z,9.90
2017-11-08T13:08:28.652Z,9.90
2017-11-08T13:09:28.685Z,9.87
2017-11-08T13:10:28.716Z,9.91
2017-11-08T13:11:28.755Z,9.87
2017-11-08T13:12:28.790Z,9.75
2017-11-08T13:13:28.827Z,9.71
2017-11-08T13:14:28.868Z,9.72
2017-11-08T13:15:28.905Z,9.78
2017-11-08T13:16:28.946Z,9.71
2017-11-08T13:17:28.977Z,9.72
2017-11-08T13:18:29.022Z,9.72